Time;durP1;ratioP1;P1;durP2;ratioP2;P2;SDS_P1;SDS_P2;PMS_P1;PMS_P2;Temp;Humidity;BMP_temperature;BMP_pressure;BME280_temperature;BME280_humidity;BME280_pressure;Samples;Min_cycle;Max_cycle;Signal;HPM_P1;HPM_P2
2023/06/15 00:01:08;;;;;;;6.5;3.9;;;;;;;13.98;62.16797;936.6336;;;;
2023/06/15 00:03:33;;;;;;;5.9;4;;;;;;;13.85;62.40332;936.6487;;;;
2023/06/15 00:06:00;;;;;;;7.3;4.1;;;;;;;13.84;62.65625;936.6584;;;;
2023/06/15 00:08:26;;;;;;;4.7;3.9;;;;;;;13.77;62.83984;936.633;;;;
2023/06/15 00:10:52;;;;;;;4.5;4;;;;;;;13.6;63.35742;936.6135;;;;
2023/06/15 00:13:18;;;;;;;6;4.2;;;;;;;13.44;63.40234;936.6519;;;;
2023/06/15 00:15:46;;;;;;;5.5;4.2;;;;;;;13.33;63.89258;936.6487;;;;
2023/06/15 00:18:11;;;;;;;5.7;3.9;;;;;;;13.44;64.33398;936.6647;;;;
2023/06/15 00:23:17;;;;;;;6.6;4.1;;;;;;;13.45;63.63379;936.6462;;;;
2023/06/15 00:25:38;;;;;;;7.1;4.2;;;;;;;13.31;64.64648;936.6145;;;;
2023/06/15 00:28:04;;;;;;;6.4;4.2;;;;;;;13.37;64.80664;936.6247;;;;
2023/06/15 00:30:29;;;;;;;4.6;3.8;;;;;;;13.44;64.71289;936.5815;;;;
2023/06/15 00:32:56;;;;;;;4.1;3.7;;;;;;;13.31;64.52051;936.5505;;;;
2023/06/15 00:35:21;;;;;;;6;4.3;;;;;;;13.32;64.37207;936.5513;;;;
2023/06/15 00:37:51;;;;;;;5.8;4.4;;;;;;;13.25;64.66211;936.5644;;;;
2023/06/15 00:40:16;;;;;;;7.4;4.6;;;;;;;13.18;65.05273;936.6075;;;;
2023/06/15 00:42:46;;;;;;;7.5;4.5;;;;;;;13.28;65.16113;936.5882;;;;
2023/06/15 00:45:16;;;;;;;5.9;4;;;;;;;13.35;64.64355;936.6088;;;;
2023/06/15 00:47:43;;;;;;;5.9;4.4;;;;;;;13.31;64.92383;936.5402;;;;
2023/06/15 00:50:09;;;;;;;6.6;4.3;;;;;;;13.18;64.62793;936.5603;;;;
2023/06/15 00:52:35;;;;;;;6.5;4.5;;;;;;;13.04;64.9873;936.5389;;;;
2023/06/15 00:55:00;;;;;;;5.5;4.1;;;;;;;13;65.01465;936.6091;;;;
2023/06/15 00:57:25;;;;;;;5.1;4;;;;;;;13.02;65.44238;936.6428;;;;
2023/06/15 00:59:51;;;;;;;6.3;4.5;;;;;;;13.03;65.62695;936.6459;;;;
2023/06/15 01:02:16;;;;;;;6.4;4.2;;;;;;;12.97;65.76855;936.6674;;;;
2023/06/15 01:04:41;;;;;;;7.1;4.3;;;;;;;13.01;66.19922;936.6649;;;;
2023/06/15 01:07:10;;;;;;;5.3;4.3;;;;;;;12.98;66.32129;936.625;;;;
2023/06/15 01:09:33;;;;;;;4.7;4;;;;;;;12.98;66.26367;936.6011;;;;
2023/06/15 01:11:59;;;;;;;6.6;4.5;;;;;;;12.9;66.27441;936.6108;;;;
2023/06/15 01:14:24;;;;;;;6.3;4.5;;;;;;;12.87;67.18848;936.6533;;;;
2023/06/15 01:16:53;;;;;;;6.4;4.5;;;;;;;12.8;68.0957;936.6418;;;;
2023/06/15 01:19:20;;;;;;;7.2;4.4;;;;;;;12.84;67.6416;936.6917;;;;
2023/06/15 01:21:46;;;;;;;8.1;4.9;;;;;;;12.8;67.32617;936.7498;;;;
2023/06/15 01:24:11;;;;;;;6.3;4.6;;;;;;;12.75;67.14746;936.7547;;;;
2023/06/15 01:26:38;;;;;;;5.7;4;;;;;;;12.62;67.44727;936.6925;;;;
2023/06/15 01:32:19;;;;;;;5.5;4.4;;;;;;;12.56;67.15234;936.6404;;;;
2023/06/15 01:34:47;;;;;;;6.1;4.4;;;;;;;12.47;67.6416;936.6389;;;;
2023/06/15 01:37:12;;;;;;;7.4;4.4;;;;;;;12.38;67.9502;936.6242;;;;
2023/06/15 01:39:42;;;;;;;6.4;4.6;;;;;;;12.32;68.10059;936.5659;;;;
2023/06/15 01:42:05;;;;;;;6.1;4.4;;;;;;;12.29;68.2207;936.6522;;;;
2023/06/15 01:44:32;;;;;;;5.3;4.1;;;;;;;12.17;68.61523;936.6088;;;;
2023/06/15 01:46:57;;;;;;;4.5;4;;;;;;;12.19;68.58398;936.6047;;;;
2023/06/15 01:49:24;;;;;;;5.2;4.3;;;;;;;12;69.11523;936.5764;;;;
2023/06/15 01:51:49;;;;;;;4.8;4.3;;;;;;;11.9;69.52344;936.5276;;;;
2023/06/15 01:54:15;;;;;;;5;4.5;;;;;;;11.83;69.80957;936.5147;;;;
2023/06/15 01:56:40;;;;;;;5.5;4.2;;;;;;;12.1;69.04102;936.5505;;;;
2023/06/15 01:59:07;;;;;;;5.3;4.3;;;;;;;12.19;68.5166;936.5705;;;;
2023/06/15 02:01:33;;;;;;;5.5;4.6;;;;;;;12.26;68.61816;936.5947;;;;
2023/06/15 02:04:02;;;;;;;5.3;4.1;;;;;;;12.2;68.31152;936.6694;;;;
2023/06/15 02:06:30;;;;;;;4.7;4.2;;;;;;;12.13;68.49316;936.6573;;;;
2023/06/15 02:08:56;;;;;;;5.8;4.3;;;;;;;11.96;69.04102;936.6944;;;;
2023/06/15 02:11:23;;;;;;;5.7;4.2;;;;;;;11.92;69.2627;936.6473;;;;
2023/06/15 02:13:48;;;;;;;6.3;4.3;;;;;;;12.02;68.99219;936.6725;;;;
2023/06/15 02:16:15;;;;;;;5.1;4.6;;;;;;;11.84;69.6748;936.6552;;;;
2023/06/15 02:18:44;;;;;;;5.6;4.2;;;;;;;11.87;69.58887;936.6193;;;;
2023/06/15 02:21:05;;;;;;;5.6;4;;;;;;;11.97;69.13477;936.6537;;;;
2023/06/15 02:23:32;;;;;;;5.7;4.7;;;;;;;11.95;69.28125;936.6489;;;;
2023/06/15 02:26:27;;;;;;;5.4;4.3;;;;;;;11.97;69.31738;936.6497;;;;
2023/06/15 02:28:54;;;;;;;6.5;4.2;;;;;;;11.95;69.31543;936.6537;;;;
2023/06/15 02:31:19;;;;;;;6.1;4.7;;;;;;;11.78;70.03125;936.6887;;;;
2023/06/15 02:33:45;;;;;;;7.1;4.4;;;;;;;11.77;70.23438;936.7006;;;;
2023/06/15 02:36:19;;;;;;;6.3;4.8;;;;;;;11.65;70.86914;936.6566;;;;
2023/06/15 02:38:37;;;;;;;5.5;4.7;;;;;;;11.46;71.87793;936.6397;;;;
2023/06/15 02:41:00;;;;;;;6.1;4.3;;;;;;;11.51;71.81836;936.6447;;;;
2023/06/15 02:45:54;;;;;;;6.8;4.7;;;;;;;11.75;70.87402;936.7086;;;;
2023/06/15 02:48:20;;;;;;;6.4;4.4;;;;;;;11.74;70.87109;936.6791;;;;
2023/06/15 02:50:46;;;;;;;7.2;4.6;;;;;;;11.74;70.64355;936.6423;;;;
2023/06/15 02:53:12;;;;;;;7.2;5;;;;;;;11.67;70.92773;936.6342;;;;
2023/06/15 02:55:41;;;;;;;7.8;5;;;;;;;11.72;70.57031;936.738;;;;
2023/06/15 02:58:05;;;;;;;5.4;4.5;;;;;;;11.77;70.5332;936.731;;;;
2023/06/15 03:00:32;;;;;;;5.1;4.6;;;;;;;11.83;70.64648;936.7772;;;;
2023/06/15 03:03:00;;;;;;;6.1;4.2;;;;;;;11.81;70.23047;936.733;;;;
2023/06/15 03:05:25;;;;;;;6.2;4.7;;;;;;;11.63;70.55566;936.7617;;;;
2023/06/15 03:07:54;;;;;;;7.1;5.5;;;;;;;11.32;71.84375;936.7936;;;;
2023/06/15 03:10:23;;;;;;;7.4;5.3;;;;;;;11.3;71.9209;936.7656;;;;
2023/06/15 03:12:48;;;;;;;7;4.7;;;;;;;11.25;72.16406;936.8331;;;;
2023/06/15 03:15:22;;;;;;;5.2;4.2;;;;;;;11.43;71.39453;936.8398;;;;
2023/06/15 03:17:48;;;;;;;5.6;4.4;;;;;;;11.17;72.31055;936.8739;;;;
2023/06/15 03:20:13;;;;;;;6.4;4.5;;;;;;;11.03;73.14453;936.8669;;;;
2023/06/15 03:26:07;;;;;;;5.8;4.4;;;;;;;11.45;72.68848;936.8533;;;;
2023/06/15 03:28:38;;;;;;;5.3;4.2;;;;;;;11.61;71.61719;936.9077;;;;
2023/06/15 03:31:04;;;;;;;5.7;4.4;;;;;;;11.41;71.83594;936.9664;;;;
2023/06/15 03:33:24;;;;;;;7;5.2;;;;;;;11.31;72.34375;936.972;;;;
2023/06/15 03:35:53;;;;;;;6.7;4.9;;;;;;;11.49;71.75781;936.895;;;;
2023/06/15 03:38:17;;;;;;;6.9;4.7;;;;;;;11.58;71.40625;936.9886;;;;
2023/06/15 03:40:45;;;;;;;7.4;5;;;;;;;11.57;72.11426;937.0029;;;;
2023/06/15 03:43:10;;;;;;;5.6;4.7;;;;;;;11.7;71.67969;937.0236;;;;
2023/06/15 03:45:37;;;;;;;6.1;4.7;;;;;;;11.67;71.31836;937.0458;;;;
2023/06/15 03:48:02;;;;;;;5.2;4.6;;;;;;;11.59;71.52441;937.0101;;;;
2023/06/15 03:50:29;;;;;;;6.3;4.5;;;;;;;11.62;71.2998;937.0911;;;;
2023/06/15 03:52:54;;;;;;;6.4;4.6;;;;;;;11.66;71.61426;937.0801;;;;
2023/06/15 03:55:25;;;;;;;6.1;4.5;;;;;;;11.8;71.04199;937.0759;;;;
2023/06/15 03:57:49;;;;;;;5.7;4.4;;;;;;;11.85;70.98145;937.0525;;;;
2023/06/15 04:02:33;;;;;;;6;4.6;;;;;;;11.96;70.46094;937.2059;;;;
2023/06/15 04:05:00;;;;;;;8;5;;;;;;;12.04;69.94727;937.2136;;;;
2023/06/15 04:07:24;;;;;;;6.8;4.5;;;;;;;11.98;70.05273;937.2483;;;;
2023/06/15 04:09:53;;;;;;;6.9;4.9;;;;;;;12.11;70.02637;937.1666;;;;
2023/06/15 04:12:21;;;;;;;7.7;5;;;;;;;12.11;69.85449;937.1953;;;;
2023/06/15 04:14:47;;;;;;;5.3;4.7;;;;;;;12.13;70.2959;937.2169;;;;
2023/06/15 04:17:18;;;;;;;6.8;4.8;;;;;;;12.29;70.5957;937.3069;;;;
2023/06/15 04:19:42;;;;;;;7.1;4.9;;;;;;;12.35;71.65918;937.3444;;;;
2023/06/15 04:22:08;;;;;;;8.8;4.9;;;;;;;12.27;71.46191;937.3259;;;;
2023/06/15 04:24:33;;;;;;;6.5;4.9;;;;;;;12.16;73.00293;937.3614;;;;
2023/06/15 04:27:04;;;;;;;6.9;4.9;;;;;;;12.16;72.88867;937.3326;;;;
2023/06/15 04:29:30;;;;;;;7.7;4.9;;;;;;;12.25;71.02344;937.3531;;;;
2023/06/15 04:31:55;;;;;;;9.6;5.3;;;;;;;12.24;69.92188;937.397;;;;
2023/06/15 04:34:22;;;;;;;9.1;4.9;;;;;;;12.39;70.2793;937.3923;;;;
2023/06/15 04:36:48;;;;;;;8.1;5.2;;;;;;;12.57;69.125;937.3951;;;;
2023/06/15 04:39:19;;;;;;;8.9;5.1;;;;;;;12.71;69.82422;937.3995;;;;
2023/06/15 04:41:49;;;;;;;8.6;5.2;;;;;;;12.8;69.19727;937.4514;;;;
2023/06/15 05:00:26;;;;;;;7.2;4.6;;;;;;;13.19;68.23633;937.5797;;;;
2023/06/15 05:02:54;;;;;;;9.8;4.9;;;;;;;13.49;66.47852;937.53;;;;
2023/06/15 05:05:24;;;;;;;5;4.1;;;;;;;14.05;64.80273;937.4757;;;;
2023/06/15 05:07:49;;;;;;;5.4;4.4;;;;;;;14.91;62.2793;937.4408;;;;
2023/06/15 05:10:19;;;;;;;5.2;4.3;;;;;;;15.46;58.92773;937.5142;;;;
2023/06/15 05:12:44;;;;;;;7;4.4;;;;;;;15.83;57.17383;937.5198;;;;
2023/06/15 05:15:16;;;;;;;5.6;4.1;;;;;;;15.93;57.08398;937.5547;;;;
2023/06/15 05:17:45;;;;;;;5.6;4.3;;;;;;;16.18;57.19727;937.5421;;;;
2023/06/15 05:20:15;;;;;;;7.7;4.1;;;;;;;16.39;54.89746;937.5332;;;;
2023/06/15 05:22:40;;;;;;;7.3;4.1;;;;;;;16.5;55.90625;937.5183;;;;
2023/06/15 05:25:07;;;;;;;5.3;4.3;;;;;;;17.25;53.95117;937.5142;;;;
2023/06/15 05:27:35;;;;;;;6.4;4.3;;;;;;;17.16;53.40723;937.4735;;;;
2023/06/15 05:30:01;;;;;;;6.7;4.1;;;;;;;17.01;54.39648;937.5514;;;;
2023/06/15 05:32:26;;;;;;;4.5;3.9;;;;;;;17.62;52.2793;937.5466;;;;
2023/06/15 05:34:52;;;;;;;5.3;4.2;;;;;;;17.85;51.13281;937.5146;;;;
2023/06/15 05:37:17;;;;;;;7.5;4.3;;;;;;;17.88;51.54297;937.5583;;;;
2023/06/15 05:39:46;;;;;;;6.4;4.2;;;;;;;17.64;51.3291;937.5536;;;;
2023/06/15 05:42:11;;;;;;;6.5;4.2;;;;;;;16.84;53.88867;937.6483;;;;
2023/06/15 05:44:39;;;;;;;5.6;4.3;;;;;;;16.48;55.70801;937.5876;;;;
2023/06/15 05:47:04;;;;;;;6;4.6;;;;;;;16.6;55.0293;937.5545;;;;
2023/06/15 05:49:36;;;;;;;5.7;4;;;;;;;16.47;55.79883;937.5758;;;;
2023/06/15 05:52:03;;;;;;;8.5;4.9;;;;;;;17;54.36035;937.5563;;;;
2023/06/15 05:54:28;;;;;;;6.4;4.6;;;;;;;17.77;52.25098;937.6624;;;;
2023/06/15 05:56:58;;;;;;;9.4;5;;;;;;;18.33;51.07324;937.6245;;;;
2023/06/15 05:59:38;;;;;;;6.3;4.5;;;;;;;18.66;49.44824;937.6964;;;;
2023/06/15 06:02:02;;;;;;;9.3;4.5;;;;;;;19.1;49.37988;937.5956;;;;
2023/06/15 06:04:31;;;;;;;5.4;4.2;;;;;;;19.2;47.82031;937.6075;;;;
2023/06/15 06:06:56;;;;;;;5.9;4.3;;;;;;;18.91;49.60449;937.6289;;;;
2023/06/15 06:09:23;;;;;;;5.7;4.3;;;;;;;19.7;48.01367;937.6208;;;;
2023/06/15 06:11:48;;;;;;;6.9;4;;;;;;;20.58;46.42773;937.5625;;;;
2023/06/15 06:14:15;;;;;;;9.7;4.6;;;;;;;22.1;43.35156;937.5938;;;;
2023/06/15 06:16:40;;;;;;;8.1;4.5;;;;;;;22.55;43.27832;937.6588;;;;
2023/06/15 06:19:08;;;;;;;5.4;3.5;;;;;;;22.93;39.63867;937.6053;;;;
2023/06/15 06:21:39;;;;;;;4;3.5;;;;;;;23.02;39.56445;937.6358;;;;
2023/06/15 06:24:04;;;;;;;6.3;3.9;;;;;;;23.12;39.40918;937.5865;;;;
2023/06/15 06:26:36;;;;;;;4.7;3.6;;;;;;;23.81;38.68164;937.5992;;;;
2023/06/15 06:29:04;;;;;;;4.9;3.3;;;;;;;24.23;38.3877;937.5644;;;;
2023/06/15 06:31:30;;;;;;;6.4;3.2;;;;;;;25.52;35.08496;937.5288;;;;
2023/06/15 06:33:59;;;;;;;7.4;3.7;;;;;;;25.28;36.68359;937.5269;;;;
2023/06/15 06:36:32;;;;;;;6.4;3.3;;;;;;;25.67;36.05371;937.5038;;;;
2023/06/15 06:38:58;;;;;;;4.6;3.3;;;;;;;27.08;34.94727;937.5053;;;;
2023/06/15 06:41:25;;;;;;;4.6;3.1;;;;;;;26.87;32.92773;937.5394;;;;
2023/06/15 06:43:51;;;;;;;4.8;3.3;;;;;;;27.73;31.30469;937.4916;;;;
2023/06/15 06:46:22;;;;;;;5.1;3.1;;;;;;;28.16;31.6084;937.4402;;;;
2023/06/15 06:48:51;;;;;;;5.1;3.3;;;;;;;28.43;30.9248;937.4832;;;;
2023/06/15 06:51:22;;;;;;;4.4;3.2;;;;;;;26.32;34;937.5016;;;;
2023/06/15 06:53:47;;;;;;;4.5;3.4;;;;;;;27.57;31.61426;937.4578;;;;
2023/06/15 06:56:16;;;;;;;5.4;3.4;;;;;;;27.09;33.73828;937.4749;;;;
2023/06/15 06:58:43;;;;;;;6;3.2;;;;;;;27.37;33.14258;937.4451;;;;
2023/06/15 07:01:09;;;;;;;4.3;3.4;;;;;;;27.39;33.90332;937.4327;;;;
2023/06/15 07:03:40;;;;;;;3.6;3;;;;;;;27.58;32.88477;937.4229;;;;
2023/06/15 07:06:11;;;;;;;4;3.2;;;;;;;27.16;33.6377;937.433;;;;
2023/06/15 07:08:37;;;;;;;3.4;2.8;;;;;;;27.45;32.25781;937.3831;;;;
2023/06/15 07:11:05;;;;;;;7.8;3.5;;;;;;;27.02;34.96484;937.4286;;;;
2023/06/15 07:13:30;;;;;;;4.8;3.1;;;;;;;26.87;33.99316;937.4056;;;;
2023/06/15 07:16:00;;;;;;;4;3.1;;;;;;;27.03;33.76953;937.3692;;;;
2023/06/15 07:18:28;;;;;;;5.6;3.1;;;;;;;26.49;34.87695;937.4139;;;;
2023/06/15 07:20:55;;;;;;;4.8;3.2;;;;;;;27.1;33.95215;937.3056;;;;
2023/06/15 07:23:20;;;;;;;5.5;3.2;;;;;;;27.42;32.99219;937.3099;;;;
2023/06/15 07:25:45;;;;;;;4.8;3.6;;;;;;;26.14;33.09863;937.3535;;;;
2023/06/15 07:28:12;;;;;;;3.9;3.5;;;;;;;25.59;34.52344;937.2427;;;;
2023/06/15 07:30:37;;;;;;;4.8;3.4;;;;;;;26.22;32.58496;937.3074;;;;
2023/06/15 07:33:03;;;;;;;3.5;3.2;;;;;;;25.85;33.62207;937.2634;;;;
2023/06/15 07:35:28;;;;;;;4.4;3.4;;;;;;;25.7;36.9668;937.2863;;;;
2023/06/15 07:37:57;;;;;;;3.7;3.3;;;;;;;25.76;35.56445;937.2795;;;;
2023/06/15 07:40:22;;;;;;;4.7;2.9;;;;;;;26.53;36.26465;937.2492;;;;
2023/06/15 07:42:49;;;;;;;5.8;3.3;;;;;;;25.96;34.05566;937.2635;;;;
2023/06/15 07:45:15;;;;;;;5.3;3.4;;;;;;;25.17;34.79883;937.2723;;;;
2023/06/15 07:47:41;;;;;;;4.4;2.9;;;;;;;25.17;34.34961;937.2546;;;;
2023/06/15 07:50:07;;;;;;;4.6;3;;;;;;;25.05;33.76172;937.223;;;;
2023/06/15 07:52:34;;;;;;;3.9;3.2;;;;;;;24.6;36.03809;937.2449;;;;
2023/06/15 07:54:59;;;;;;;5.2;3.4;;;;;;;23.25;38.52734;937.2477;;;;
2023/06/15 07:57:29;;;;;;;5.3;3.3;;;;;;;22.39;39.68457;937.2216;;;;
2023/06/15 07:59:57;;;;;;;6.9;3.5;;;;;;;21.94;41.36719;937.144;;;;
2023/06/15 08:02:22;;;;;;;4.8;3.2;;;;;;;22.85;41.04102;937.0927;;;;
2023/06/15 08:04:53;;;;;;;4.7;3.3;;;;;;;23.59;41.00293;937.1479;;;;
2023/06/15 08:07:21;;;;;;;3.5;3.1;;;;;;;24.22;37.9043;937.095;;;;
2023/06/15 08:09:46;;;;;;;6.1;3.5;;;;;;;24.61;37.78418;937.1172;;;;
2023/06/15 08:12:14;;;;;;;6.6;3;;;;;;;25.99;36.32813;937.1252;;;;
2023/06/15 08:14:39;;;;;;;4.4;3;;;;;;;27.97;33.28125;937.0261;;;;
2023/06/15 08:17:08;;;;;;;4.9;2.8;;;;;;;28.41;34.22949;937.0131;;;;
2023/06/15 08:19:33;;;;;;;3.1;2.8;;;;;;;27.39;34.79297;937.0728;;;;
2023/06/15 08:22:00;;;;;;;4.3;3.2;;;;;;;26.74;31.56836;937.0552;;;;
2023/06/15 08:24:25;;;;;;;4.8;3;;;;;;;26.32;34.56738;937.0952;;;;
2023/06/15 08:26:50;;;;;;;6;3.1;;;;;;;26.06;33.96875;937.079;;;;
2023/06/15 08:29:18;;;;;;;4;2.9;;;;;;;24.22;37.46875;937.0575;;;;
2023/06/15 08:31:43;;;;;;;5.9;3.2;;;;;;;23.28;39.63477;937.0978;;;;
2023/06/15 08:34:08;;;;;;;4.3;3.1;;;;;;;22.34;41.61523;937.1057;;;;
2023/06/15 08:36:33;;;;;;;3.9;3.3;;;;;;;21.89;42.4873;937.1231;;;;
2023/06/15 08:39:03;;;;;;;7.4;3.5;;;;;;;21.56;43.77832;937.1139;;;;
2023/06/15 08:41:28;;;;;;;8.3;3.6;;;;;;;21.39;43.46875;937.1017;;;;
2023/06/15 08:43:57;;;;;;;4;3.6;;;;;;;21.82;43.88672;937.0418;;;;
2023/06/15 08:46:27;;;;;;;4.8;3.3;;;;;;;22.55;41.95215;937.0388;;;;
2023/06/15 08:48:53;;;;;;;3.4;3.1;;;;;;;23.14;42.07813;937.0441;;;;
2023/06/15 08:51:18;;;;;;;4.7;3.2;;;;;;;24.57;38.99512;937.022;;;;
2023/06/15 08:53:47;;;;;;;4.1;3.1;;;;;;;25.27;38.00488;937.0151;;;;
2023/06/15 08:56:16;;;;;;;7;3.4;;;;;;;26.18;37.01855;937.0467;;;;
2023/06/15 08:58:41;;;;;;;8.6;3;;;;;;;26.48;34.71094;937.0187;;;;
2023/06/15 09:01:06;;;;;;;5.6;3.5;;;;;;;24.37;38.91895;936.9886;;;;
2023/06/15 09:03:33;;;;;;;4.2;3.1;;;;;;;23.65;40.57324;937.0457;;;;
2023/06/15 09:05:58;;;;;;;4.4;3;;;;;;;23.56;39.23633;937.0564;;;;
2023/06/15 09:08:25;;;;;;;7.3;3.9;;;;;;;22.42;42.02148;937.0168;;;;
2023/06/15 09:10:50;;;;;;;4.8;3.2;;;;;;;22.03;42.1709;937.0844;;;;
2023/06/15 09:13:18;;;;;;;6.8;3.8;;;;;;;22.26;46.33398;937.0641;;;;
2023/06/15 09:15:43;;;;;;;6.9;4.1;;;;;;;21.85;46.99414;937.0378;;;;
2023/06/15 09:18:10;;;;;;;5.5;3.9;;;;;;;21.47;44.26172;937.0877;;;;
2023/06/15 09:20:35;;;;;;;7.7;3.5;;;;;;;21.59;45.72461;937.0198;;;;
2023/06/15 09:23:01;;;;;;;5.2;3.6;;;;;;;21.44;45.55664;937.1085;;;;
2023/06/15 09:25:28;;;;;;;7.3;3.7;;;;;;;21.5;46.17188;937.1039;;;;
2023/06/15 09:27:53;;;;;;;5.4;3.6;;;;;;;22.06;46.79297;937.0869;;;;
2023/06/15 09:30:22;;;;;;;4.7;3.5;;;;;;;22.33;45.08594;937.0687;;;;
2023/06/15 09:32:47;;;;;;;5.9;3.5;;;;;;;22.17;45.89063;937.0176;;;;
2023/06/15 09:35:15;;;;;;;4;3.2;;;;;;;22.53;43.56934;937.0589;;;;
2023/06/15 09:37:39;;;;;;;5.3;3.3;;;;;;;22.61;41.96875;937.0048;;;;
2023/06/15 09:40:10;;;;;;;4;3.1;;;;;;;22.66;41.39844;936.9966;;;;
2023/06/15 09:42:33;;;;;;;4.7;3.3;;;;;;;22.69;41.89453;937.0425;;;;
2023/06/15 09:45:03;;;;;;;4.3;3.3;;;;;;;22.81;41.4834;937.0151;;;;
2023/06/15 09:47:27;;;;;;;4.1;3.3;;;;;;;22.87;39.86719;937.0028;;;;
2023/06/15 09:49:52;;;;;;;4.2;3.6;;;;;;;23.14;40.35059;936.9423;;;;
2023/06/15 09:52:18;;;;;;;6.1;3.2;;;;;;;23.63;39.56055;937.0114;;;;
2023/06/15 09:54:48;;;;;;;4.2;3;;;;;;;24.43;38.26367;936.8975;;;;
2023/06/15 09:57:19;;;;;;;3.4;3.1;;;;;;;24.32;38.74902;936.973;;;;
2023/06/15 09:59:42;;;;;;;3.9;3;;;;;;;24.07;38.18555;937.0058;;;;
2023/06/15 10:02:10;;;;;;;4.3;3.2;;;;;;;23.68;38.7998;936.9479;;;;
2023/06/15 10:04:36;;;;;;;5;2.9;;;;;;;23.26;40.33887;937.0158;;;;
2023/06/15 10:07:01;;;;;;;5.1;3.3;;;;;;;23.34;37.87695;937.0164;;;;
2023/06/15 10:09:27;;;;;;;3;2.7;;;;;;;22.7;39.27832;937.0087;;;;
2023/06/15 10:11:51;;;;;;;5.4;3;;;;;;;22.39;40.38867;937.034;;;;
2023/06/15 10:14:16;;;;;;;4.4;3.4;;;;;;;22.32;39.43164;937.0334;;;;
2023/06/15 10:16:41;;;;;;;10;4.3;;;;;;;22.59;40.46484;937.0308;;;;
2023/06/15 10:19:11;;;;;;;8.5;3.8;;;;;;;22.8;39.81543;936.9871;;;;
2023/06/15 10:21:36;;;;;;;8.7;3.7;;;;;;;23.14;41.90137;936.9717;;;;
2023/06/15 10:24:00;;;;;;;3.9;3.3;;;;;;;23.91;37.84277;936.9275;;;;
2023/06/15 10:26:28;;;;;;;3.5;3.2;;;;;;;24.83;36.5166;936.9272;;;;
2023/06/15 10:28:53;;;;;;;4.6;3.2;;;;;;;24.61;36.4043;936.8715;;;;
2023/06/15 10:31:18;;;;;;;5.4;3.2;;;;;;;24.34;37.64355;936.9316;;;;
2023/06/15 10:33:44;;;;;;;5.5;3.1;;;;;;;24.1;37.77637;936.8533;;;;
2023/06/15 10:36:09;;;;;;;4;3.1;;;;;;;24.06;38.97363;936.8687;;;;
2023/06/15 10:38:34;;;;;;;4.3;3.2;;;;;;;24.2;37.57324;936.7427;;;;
2023/06/15 10:40:59;;;;;;;6.8;3.7;;;;;;;24.07;40.27051;936.8359;;;;
2023/06/15 10:43:24;;;;;;;5;3.3;;;;;;;24.49;38.58789;936.8353;;;;
2023/06/15 10:45:49;;;;;;;4.4;3.2;;;;;;;24.5;36.54883;936.827;;;;
2023/06/15 10:48:17;;;;;;;3.1;2.8;;;;;;;24.67;36.2334;936.7961;;;;
2023/06/15 10:50:42;;;;;;;5.2;3.3;;;;;;;24.27;36.53125;936.7609;;;;
2023/06/15 10:53:10;;;;;;;4.4;3.3;;;;;;;24.21;37.25488;936.8167;;;;
2023/06/15 10:55:35;;;;;;;5.3;3;;;;;;;24.31;35.67383;936.8713;;;;
2023/06/15 10:58:03;;;;;;;5.2;3.4;;;;;;;24.22;36.91504;936.8834;;;;
2023/06/15 11:00:28;;;;;;;5.5;3;;;;;;;23.9;39.06641;936.9089;;;;
2023/06/15 11:02:59;;;;;;;7.7;3.3;;;;;;;23.4;37.65723;936.9264;;;;
2023/06/15 11:05:22;;;;;;;5.2;3.4;;;;;;;23.27;37.58789;936.9398;;;;
2023/06/15 11:07:47;;;;;;;6.6;3.3;;;;;;;23.05;40.31934;936.9631;;;;
2023/06/15 11:10:15;;;;;;;4.4;3.3;;;;;;;23.37;41.08887;936.986;;;;
2023/06/15 11:12:40;;;;;;;3.9;3;;;;;;;23.85;37.74316;936.9123;;;;
2023/06/15 11:15:06;;;;;;;4.2;3;;;;;;;24.25;36.39941;936.903;;;;
2023/06/15 11:17:31;;;;;;;4.8;3.2;;;;;;;24.65;39.68555;936.9308;;;;
2023/06/15 11:19:58;;;;;;;17.3;4.2;;;;;;;25.24;35.85449;936.9326;;;;
2023/06/15 11:22:25;;;;;;;4.1;3.2;;;;;;;24.94;37.28125;936.9285;;;;
2023/06/15 11:24:51;;;;;;;5.5;3.2;;;;;;;24.13;36.18945;936.9078;;;;
2023/06/15 11:27:18;;;;;;;4.5;3.3;;;;;;;23.67;35.32813;936.9066;;;;
2023/06/15 11:29:44;;;;;;;4.9;3.3;;;;;;;23.77;35.94922;936.7996;;;;
2023/06/15 11:32:09;;;;;;;4.5;3.3;;;;;;;23.43;36.84863;936.9059;;;;
2023/06/15 11:34:35;;;;;;;4.4;3.1;;;;;;;23.22;37.86621;936.8755;;;;
2023/06/15 11:37:01;;;;;;;5.1;3.1;;;;;;;22.85;38.86816;936.8939;;;;
2023/06/15 11:39:33;;;;;;;5.7;3.1;;;;;;;23.13;36.90625;936.8903;;;;
2023/06/15 11:41:58;;;;;;;4.2;3.2;;;;;;;23.53;37.13965;936.86;;;;
2023/06/15 11:44:44;;;;;;;3.5;3.1;;;;;;;23.46;35.25195;936.8842;;;;
2023/06/15 11:47:11;;;;;;;5;3.2;;;;;;;23.55;38.7998;936.8819;;;;
2023/06/15 11:49:38;;;;;;;4.9;3.4;;;;;;;23.87;36.79199;936.9137;;;;
2023/06/15 11:52:04;;;;;;;5.6;3.4;;;;;;;23.55;36.88281;936.8861;;;;
2023/06/15 11:54:30;;;;;;;4.2;3.1;;;;;;;23.47;37.0293;936.8672;;;;
2023/06/15 11:56:57;;;;;;;3.3;3;;;;;;;24.08;36.37305;936.8273;;;;
2023/06/15 11:59:23;;;;;;;7.1;3.1;;;;;;;24.58;35.07031;936.8141;;;;
2023/06/15 12:01:49;;;;;;;6.6;3.2;;;;;;;25.06;34.28223;936.8304;;;;
2023/06/15 12:04:19;;;;;;;4.5;2.8;;;;;;;24.9;36.67578;936.8289;;;;
2023/06/15 12:06:44;;;;;;;3.5;3.1;;;;;;;25.31;35.30469;936.8599;;;;
2023/06/15 12:09:09;;;;;;;6.3;2.9;;;;;;;25.78;33.50977;936.7757;;;;
2023/06/15 12:11:37;;;;;;;4.2;3.2;;;;;;;25.82;33.80859;936.7827;;;;
2023/06/15 12:14:02;;;;;;;5.2;3.1;;;;;;;25.62;33.7334;936.7166;;;;
2023/06/15 12:16:30;;;;;;;3.2;2.8;;;;;;;25.02;35.45898;936.7651;;;;
2023/06/15 12:18:55;;;;;;;7.1;2.7;;;;;;;24.3;34.98926;936.6973;;;;
2023/06/15 12:21:20;;;;;;;5.5;2.9;;;;;;;24.32;35.61523;936.6584;;;;
2023/06/15 12:23:47;;;;;;;4.2;2.7;;;;;;;24.21;37.12598;936.6627;;;;
2023/06/15 12:26:12;;;;;;;3.6;2.7;;;;;;;24.33;35.63965;936.6447;;;;
2023/06/15 12:28:37;;;;;;;3.9;3.2;;;;;;;24.77;35.93359;936.6141;;;;
2023/06/15 12:31:02;;;;;;;3.1;2.6;;;;;;;24.96;35.14746;936.6253;;;;
2023/06/15 12:33:34;;;;;;;3.5;2.9;;;;;;;24.92;35.33398;936.6704;;;;
2023/06/15 12:35:57;;;;;;;4.5;3.1;;;;;;;25.1;34.76855;936.6906;;;;
2023/06/15 12:38:24;;;;;;;4.5;3.2;;;;;;;24.79;34.41504;936.7178;;;;
2023/06/15 12:40:54;;;;;;;4;2.6;;;;;;;24.48;33.84863;936.7074;;;;
2023/06/15 12:43:18;;;;;;;3.9;2.9;;;;;;;24.28;34.74023;936.7029;;;;
2023/06/15 12:45:43;;;;;;;4;3;;;;;;;24;35.05957;936.7421;;;;
2023/06/15 12:48:08;;;;;;;5.2;3.1;;;;;;;24.01;35.20215;936.7855;;;;
2023/06/15 12:50:33;;;;;;;4.4;3.2;;;;;;;23.76;36.41699;936.7459;;;;
2023/06/15 12:53:00;;;;;;;3.8;3;;;;;;;23.42;37.04883;936.7036;;;;
2023/06/15 12:55:25;;;;;;;6.7;3.2;;;;;;;23.49;37.36035;936.6325;;;;
2023/06/15 12:57:52;;;;;;;4.5;3.1;;;;;;;23.85;34.75391;936.639;;;;
2023/06/15 13:00:17;;;;;;;4;3;;;;;;;24.33;36.22852;936.6595;;;;
2023/06/15 13:02:47;;;;;;;5.6;3.2;;;;;;;24.35;34.56836;936.6147;;;;
2023/06/15 13:05:12;;;;;;;5.2;3.3;;;;;;;24.38;35.65527;936.5684;;;;
2023/06/15 13:07:40;;;;;;;6.3;2.9;;;;;;;24.59;36.48633;936.5661;;;;
2023/06/15 13:10:05;;;;;;;3.2;2.9;;;;;;;24.36;35.00684;936.5593;;;;
2023/06/15 13:12:37;;;;;;;6.5;2.8;;;;;;;23.84;34.97656;936.4889;;;;
2023/06/15 13:15:04;;;;;;;4.2;2.8;;;;;;;23.47;36.75879;936.6219;;;;
2023/06/15 13:17:29;;;;;;;3.8;3;;;;;;;23.4;36.98828;936.6083;;;;
2023/06/15 13:19:55;;;;;;;5.4;3;;;;;;;23.34;37.05371;936.5608;;;;
2023/06/15 13:22:20;;;;;;;3.8;2.8;;;;;;;23.77;39.64258;936.5617;;;;
2023/06/15 13:24:46;;;;;;;6.4;3.3;;;;;;;23.62;38.40723;936.541;;;;
2023/06/15 13:27:11;;;;;;;3.8;3;;;;;;;23.15;37.89648;936.6072;;;;
2023/06/15 13:29:36;;;;;;;3.5;2.9;;;;;;;22.72;38.22266;936.5664;;;;
2023/06/15 13:32:03;;;;;;;5.8;3.2;;;;;;;22.7;37.72852;936.567;;;;
2023/06/15 13:34:28;;;;;;;5.5;3.1;;;;;;;22.98;40.88867;936.5994;;;;
2023/06/15 13:36:53;;;;;;;4;2.8;;;;;;;23.19;39.96777;936.6323;;;;
2023/06/15 13:39:23;;;;;;;5;3;;;;;;;23.9;37.35938;936.5958;;;;
2023/06/15 13:41:54;;;;;;;4.2;2.7;;;;;;;24.37;36.87988;936.5607;;;;
2023/06/15 13:44:18;;;;;;;6.6;3.3;;;;;;;24.52;37.62305;936.5538;;;;
2023/06/15 13:46:47;;;;;;;6.6;3.2;;;;;;;24.56;37.48535;936.5884;;;;
2023/06/15 13:49:12;;;;;;;4.9;2.8;;;;;;;24.31;34.7666;936.5668;;;;
2023/06/15 13:51:39;;;;;;;3.2;2.7;;;;;;;24.26;33.89063;936.4947;;;;
2023/06/15 13:54:04;;;;;;;3.3;3;;;;;;;24.08;36.12695;936.4886;;;;
2023/06/15 13:56:32;;;;;;;4.7;2.7;;;;;;;24.1;35.91602;936.5129;;;;
2023/06/15 13:58:57;;;;;;;3.8;2.9;;;;;;;23.98;36.01172;936.5176;;;;
2023/06/15 14:01:25;;;;;;;5.3;3.1;;;;;;;24.16;36.01465;936.4966;;;;
2023/06/15 14:03:50;;;;;;;3.6;3;;;;;;;24.15;36.4375;936.5215;;;;
2023/06/15 14:06:17;;;;;;;4.6;3.1;;;;;;;23.85;35.67188;936.5322;;;;
2023/06/15 14:08:42;;;;;;;5.8;3.7;;;;;;;23.62;38.06445;936.5679;;;;
2023/06/15 14:11:10;;;;;;;4.2;3.3;;;;;;;23.94;37.48047;936.5541;;;;
2023/06/15 14:13:35;;;;;;;4;3;;;;;;;24.21;36.08887;936.5286;;;;
2023/06/15 14:16:03;;;;;;;6.1;3;;;;;;;24.41;36.38867;936.5646;;;;
2023/06/15 14:18:28;;;;;;;4.3;3;;;;;;;24.78;36.91309;936.5704;;;;
2023/06/15 14:20:55;;;;;;;4.6;3;;;;;;;25.1;33.55273;936.5687;;;;
2023/06/15 14:23:20;;;;;;;4.9;2.8;;;;;;;25.11;34.42676;936.5623;;;;
2023/06/15 14:25:45;;;;;;;4.3;3.2;;;;;;;25.15;34.9502;936.5675;;;;
2023/06/15 14:28:12;;;;;;;4.6;3;;;;;;;25;35.78809;936.5494;;;;
2023/06/15 14:30:35;;;;;;;5;3;;;;;;;25.05;34.44629;936.5148;;;;
2023/06/15 14:33:00;;;;;;;4.1;2.6;;;;;;;25.11;34.3916;936.4931;;;;
2023/06/15 14:35:28;;;;;;;3.4;3.1;;;;;;;24.96;34.93457;936.5604;;;;
2023/06/15 14:37:58;;;;;;;3.1;2.8;;;;;;;24.3;34.36523;936.5313;;;;
2023/06/15 14:40:23;;;;;;;3.6;2.6;;;;;;;24.11;37.23535;936.468;;;;
2023/06/15 14:42:52;;;;;;;7.6;3.3;;;;;;;23.77;38.19531;936.5666;;;;
2023/06/15 14:45:17;;;;;;;6.4;3.2;;;;;;;23.37;37.86816;936.5137;;;;
2023/06/15 14:47:46;;;;;;;8.6;3.3;;;;;;;23.53;37.92773;936.5602;;;;
2023/06/15 14:50:11;;;;;;;5.9;3.1;;;;;;;23.54;37.8584;936.5059;;;;
2023/06/15 14:52:41;;;;;;;6.1;2.8;;;;;;;23.57;37.64844;936.5369;;;;
2023/06/15 14:55:14;;;;;;;6.3;3.3;;;;;;;23.69;37.3877;936.4905;;;;